BAW58L FACT-EGLL
Flight info
| Callsign | BAW58L |
|---|---|
| Flight time | N/A |
| Altitude | 33000 |
| Route | KODES1A KODES UN186 ATUPI/N0498F340 UM436 ANVAG UN187 VNA UR526 LIKAD DCT RASOP UG861 ARASI DCT KOKAM UA604 AS UR978 BOD/N0495F350 UG362 BARKA/N0497F340 UA605 CSO/N0486F360 UM998 KAMER DCT BALEN DCT PADKO DCT MOPEM DCT CACHI DCT AVLON DCT OKRIX DCT BRY DCT CLM DCT KOPOR DCT ABNUR DCT DIMAL DCT ALESO ALESO1H |
| Aircraft | A35K/H-SDE2E3GHIJ3J4J5LM1ORWXY/LB1D1 |
Departure
| Time | 2026-05-04 06:16 |
|---|---|
| Airport | Cape Town International Airport (FACT) |
Arrival
| Time | N/A |
|---|---|
| Airport | London Heathrow Airport (EGLL) |
| Time | Latitude | Longitude | Altitude | Speed | Heading |
|---|---|---|---|---|---|
| 2026-05-04 05:29 | -33.96868 | 18.59968 | 160 ft | 0 kts | 75° |
| 2026-05-04 05:29 | -33.96865 | 18.59985 | 160 ft | 0 kts | 75° |
| 2026-05-04 05:32 | -33.96865 | 18.59984 | 160 ft | 0 kts | 75° |
| 2026-05-04 05:55 | -33.96866 | 18.59984 | 160 ft | 0 kts | 75° |
| 2026-05-04 06:03 | -33.96839 | 18.59880 | 160 ft | 4 kts | 165° |
| 2026-05-04 06:03 | -33.96829 | 18.59877 | 160 ft | 0 kts | 165° |
| 2026-05-04 06:07 | -33.96835 | 18.59879 | 160 ft | 3 kts | 165° |
| 2026-05-04 06:07 | -33.96874 | 18.59891 | 160 ft | 9 kts | 165° |
| 2026-05-04 06:08 | -33.96936 | 18.59912 | 160 ft | 10 kts | 165° |
| 2026-05-04 06:08 | -33.97002 | 18.59933 | 160 ft | 10 kts | 165° |
| 2026-05-04 06:08 | -33.97070 | 18.59953 | 160 ft | 10 kts | 170° |
| 2026-05-04 06:08 | -33.97141 | 18.59969 | 160 ft | 11 kts | 166° |
| 2026-05-04 06:09 | -33.97215 | 18.59991 | 161 ft | 11 kts | 166° |
| 2026-05-04 06:09 | -33.97289 | 18.60014 | 160 ft | 11 kts | 164° |
| 2026-05-04 06:11 | -33.97857 | 18.60255 | 160 ft | 13 kts | 159° |
| 2026-05-04 06:11 | -33.97944 | 18.60293 | 160 ft | 14 kts | 161° |
| 2026-05-04 06:13 | -33.98592 | 18.60568 | 160 ft | 14 kts | 161° |
| 2026-05-04 06:14 | -33.98775 | 18.60831 | 161 ft | 5 kts | 74° |
| 2026-05-04 06:14 | -33.98759 | 18.60876 | 161 ft | 5 kts | 43° |
| 2026-05-04 06:15 | -33.98734 | 18.60875 | 160 ft | 0 kts | 345° |
| 2026-05-04 06:15 | -33.98607 | 18.60835 | 159 ft | 52 kts | 345° |
| 2026-05-04 06:15 | -33.98024 | 18.60652 | 160 ft | 119 kts | 345° |
| 2026-05-04 06:16 | -33.97021 | 18.60338 | 165 ft | 176 kts | 346° |
| 2026-05-04 06:16 | -33.95829 | 18.59973 | 845 ft | 174 kts | 345° |
| 2026-05-04 06:16 | -33.94655 | 18.59634 | 1552 ft | 180 kts | 342° |
| 2026-05-04 06:16 | -33.93410 | 18.59269 | 1873 ft | 188 kts | 341° |
| 2026-05-04 06:17 | -33.92124 | 18.58849 | 2147 ft | 196 kts | 339° |
| 2026-05-04 06:17 | -33.90694 | 18.58711 | 2259 ft | 220 kts | 5° |
| 2026-05-04 06:17 | -33.89148 | 18.59101 | 2526 ft | 233 kts | 8° |
| 2026-05-04 06:17 | -33.87511 | 18.59508 | 2805 ft | 249 kts | 6° |
| 2026-05-04 06:18 | -33.85754 | 18.59922 | 3014 ft | 265 kts | 5° |
| 2026-05-04 06:18 | -33.83942 | 18.60344 | 3569 ft | 263 kts | 6° |
| 2026-05-04 06:18 | -33.82172 | 18.60760 | 4258 ft | 257 kts | 5° |
| 2026-05-04 06:20 | -33.69533 | 18.63441 | 8272 ft | 263 kts | 4° |
| 2026-05-04 06:20 | -33.67732 | 18.63830 | 8984 ft | 262 kts | 3° |
| 2026-05-04 06:21 | -33.60575 | 18.65398 | 11189 ft | 265 kts | 3° |
| 2026-05-04 06:21 | -33.59372 | 18.65663 | 11499 ft | 266 kts | 3° |
| 2026-05-04 06:22 | -33.57536 | 18.66068 | 11921 ft | 272 kts | 3° |
| 2026-05-04 06:22 | -33.54998 | 18.66621 | 12214 ft | 288 kts | 3° |
| 2026-05-04 06:25 | -33.24866 | 18.69857 | 16204 ft | 369 kts | 346° |
| 2026-05-04 06:25 | -33.22317 | 18.69398 | 16721 ft | 369 kts | 346° |
| 2026-05-04 06:26 | -33.19772 | 18.68936 | 17206 ft | 370 kts | 345° |
| 2026-05-04 06:26 | -33.17256 | 18.68485 | 17688 ft | 371 kts | 345° |
| 2026-05-04 06:26 | -33.14668 | 18.68028 | 18152 ft | 372 kts | 345° |
| 2026-05-04 06:26 | -33.12097 | 18.67581 | 18557 ft | 374 kts | 345° |
| 2026-05-04 06:27 | -33.01730 | 18.65803 | 20021 ft | 382 kts | 345° |
| 2026-05-04 06:28 | -32.99097 | 18.65353 | 20417 ft | 383 kts | 345° |
| 2026-05-04 06:28 | -32.96452 | 18.64902 | 20824 ft | 385 kts | 345° |
| 2026-05-04 06:28 | -32.93792 | 18.64447 | 21212 ft | 386 kts | 345° |
| 2026-05-04 06:28 | -32.91123 | 18.63992 | 21608 ft | 388 kts | 345° |
| 2026-05-04 06:29 | -32.88446 | 18.63537 | 22018 ft | 389 kts | 345° |
| 2026-05-04 06:29 | -32.85761 | 18.63082 | 22423 ft | 391 kts | 345° |
| 2026-05-04 06:29 | -32.83063 | 18.62623 | 22848 ft | 393 kts | 345° |
| 2026-05-04 06:29 | -32.80348 | 18.62161 | 23251 ft | 394 kts | 345° |
| 2026-05-04 06:30 | -32.77655 | 18.61701 | 23529 ft | 398 kts | 345° |
| 2026-05-04 06:30 | -32.74894 | 18.61230 | 23864 ft | 401 kts | 345° |
| 2026-05-04 06:30 | -32.72126 | 18.60760 | 24221 ft | 402 kts | 345° |
| 2026-05-04 06:30 | -32.69356 | 18.60291 | 24626 ft | 403 kts | 345° |
| 2026-05-04 06:31 | -32.66578 | 18.59820 | 25011 ft | 403 kts | 345° |
| 2026-05-04 06:31 | -32.63800 | 18.59351 | 25357 ft | 404 kts | 345° |
| 2026-05-04 06:31 | -32.61014 | 18.58880 | 25700 ft | 405 kts | 345° |
| 2026-05-04 06:31 | -32.58210 | 18.58405 | 25986 ft | 407 kts | 345° |
| 2026-05-04 06:32 | -32.55396 | 18.57929 | 26301 ft | 409 kts | 345° |
| 2026-05-04 06:33 | -32.35531 | 18.54577 | 28368 ft | 417 kts | 345° |
| 2026-05-04 06:34 | -32.32652 | 18.54092 | 28636 ft | 419 kts | 345° |
| 2026-05-04 06:34 | -32.29755 | 18.53605 | 28924 ft | 419 kts | 345° |
| 2026-05-04 06:34 | -32.26868 | 18.53121 | 29203 ft | 419 kts | 345° |
| 2026-05-04 06:34 | -32.23977 | 18.52636 | 29563 ft | 418 kts | 345° |
| 2026-05-04 06:35 | -32.21103 | 18.52156 | 29967 ft | 416 kts | 345° |
| 2026-05-04 06:36 | -32.01243 | 18.48829 | 31537 ft | 415 kts | 345° |
| 2026-05-04 06:37 | -31.98374 | 18.48346 | 31659 ft | 417 kts | 345° |
| 2026-05-04 06:37 | -31.95507 | 18.47867 | 31920 ft | 415 kts | 345° |
| 2026-05-04 06:37 | -31.92653 | 18.47393 | 32190 ft | 413 kts | 345° |
| 2026-05-04 06:37 | -31.89809 | 18.46922 | 32417 ft | 412 kts | 344° |
| 2026-05-04 06:38 | -31.86968 | 18.46450 | 32624 ft | 412 kts | 344° |
| 2026-05-04 06:38 | -31.84129 | 18.45979 | 32835 ft | 411 kts | 344° |
| 2026-05-04 06:40 | -31.64081 | 18.42641 | 33043 ft | 418 kts | 344° |
| 2026-05-04 06:40 | -31.61197 | 18.42166 | 33034 ft | 417 kts | 344° |
| 2026-05-04 06:40 | -31.55454 | 18.41218 | 33035 ft | 416 kts | 344° |
| 2026-05-04 06:41 | -31.49720 | 18.40268 | 33039 ft | 418 kts | 344° |
| 2026-05-04 06:41 | -31.43949 | 18.39312 | 33042 ft | 419 kts | 344° |
| 2026-05-04 06:42 | -31.38176 | 18.38361 | 33022 ft | 419 kts | 344° |
| 2026-05-04 06:44 | -31.15061 | 18.34558 | 33046 ft | 422 kts | 345° |
| 2026-05-04 06:44 | -31.09226 | 18.33606 | 33044 ft | 422 kts | 345° |
| 2026-05-04 06:45 | -31.03439 | 18.32661 | 33038 ft | 422 kts | 345° |
| 2026-05-04 06:45 | -30.97617 | 18.31706 | 33045 ft | 424 kts | 344° |
| 2026-05-04 06:46 | -30.91749 | 18.30744 | 33050 ft | 425 kts | 345° |
| 2026-05-04 06:46 | -30.85881 | 18.29791 | 33054 ft | 425 kts | 345° |
| 2026-05-04 06:48 | -30.62416 | 18.25975 | 33066 ft | 427 kts | 345° |
| 2026-05-04 06:50 | -30.38854 | 18.22162 | 33085 ft | 429 kts | 345° |
| 2026-05-04 06:51 | -30.32933 | 18.21214 | 33090 ft | 429 kts | 345° |
| 2026-05-04 06:51 | -30.27016 | 18.20258 | 33091 ft | 429 kts | 345° |
| 2026-05-04 06:52 | -30.21114 | 18.19248 | 33095 ft | 429 kts | 344° |
| 2026-05-04 06:52 | -30.15243 | 18.18292 | 33102 ft | 431 kts | 345° |
| 2026-05-04 06:53 | -30.09335 | 18.17389 | 33099 ft | 430 kts | 345° |
| 2026-05-04 06:53 | -30.03395 | 18.16452 | 33099 ft | 430 kts | 345° |
| 2026-05-04 06:54 | -29.97458 | 18.15509 | 33102 ft | 430 kts | 345° |
| 2026-05-04 06:54 | -29.91941 | 18.14629 | 33097 ft | 430 kts | 345° |
| 2026-05-04 06:55 | -29.86004 | 18.13680 | 33092 ft | 430 kts | 345° |
| 2026-05-04 06:55 | -29.80063 | 18.12732 | 33089 ft | 431 kts | 345° |
| 2026-05-04 06:57 | -29.56342 | 18.08955 | 33084 ft | 431 kts | 345° |
| 2026-05-04 06:58 | -29.50397 | 18.08013 | 33105 ft | 431 kts | 345° |
| 2026-05-04 06:58 | -29.44493 | 18.07080 | 33100 ft | 431 kts | 345° |
| 2026-05-04 06:59 | -29.38552 | 18.06138 | 33099 ft | 431 kts | 345° |
| 2026-05-04 06:59 | -29.32607 | 18.05199 | 33100 ft | 431 kts | 345° |
| 2026-05-04 07:01 | -29.08852 | 18.01453 | 33099 ft | 431 kts | 345° |
| 2026-05-04 07:02 | -29.02940 | 18.00524 | 33101 ft | 431 kts | 345° |
| 2026-05-04 07:02 | -28.96992 | 17.99591 | 33102 ft | 431 kts | 345° |
| 2026-05-04 07:03 | -28.91046 | 17.98647 | 33096 ft | 432 kts | 345° |
| 2026-05-04 07:03 | -28.85081 | 17.97717 | 33089 ft | 433 kts | 345° |
| 2026-05-04 07:04 | -28.79112 | 17.96789 | 33092 ft | 433 kts | 345° |
| 2026-05-04 07:04 | -28.73133 | 17.95851 | 33105 ft | 432 kts | 345° |
| 2026-05-04 07:05 | -28.67209 | 17.94928 | 33105 ft | 433 kts | 345° |
| 2026-05-04 07:05 | -28.61241 | 17.94002 | 33107 ft | 433 kts | 345° |
| 2026-05-04 07:06 | -28.52289 | 17.92610 | 33099 ft | 433 kts | 345° |
| 2026-05-04 07:07 | -28.46312 | 17.91681 | 33098 ft | 433 kts | 345° |
| 2026-05-04 07:09 | -28.22443 | 17.87980 | 33105 ft | 434 kts | 345° |
| 2026-05-04 07:09 | -28.16461 | 17.87057 | 33096 ft | 434 kts | 345° |
| 2026-05-04 07:10 | -28.10514 | 17.86139 | 33097 ft | 434 kts | 345° |
| 2026-05-04 07:12 | -27.87547 | 17.82602 | 33091 ft | 435 kts | 345° |
| 2026-05-04 07:12 | -27.81550 | 17.81681 | 33088 ft | 435 kts | 345° |
| 2026-05-04 07:13 | -27.75540 | 17.80764 | 33095 ft | 436 kts | 345° |
| 2026-05-04 07:13 | -27.69561 | 17.79844 | 33090 ft | 437 kts | 345° |
| 2026-05-04 07:14 | -27.54493 | 17.77540 | 33081 ft | 437 kts | 345° |
| 2026-05-04 07:15 | -27.48465 | 17.76620 | 33064 ft | 437 kts | 345° |
| 2026-05-04 07:15 | -27.42443 | 17.75703 | 33086 ft | 440 kts | 345° |
| 2026-05-04 07:16 | -27.36378 | 17.74800 | 33084 ft | 440 kts | 345° |
| 2026-05-04 07:16 | -27.30317 | 17.73872 | 33090 ft | 438 kts | 344° |
| 2026-05-04 07:17 | -27.24274 | 17.72944 | 33081 ft | 438 kts | 344° |
| 2026-05-04 07:17 | -27.18277 | 17.72029 | 33084 ft | 438 kts | 344° |
| 2026-05-04 07:18 | -27.12233 | 17.71111 | 33082 ft | 438 kts | 344° |
| 2026-05-04 07:18 | -27.06183 | 17.70196 | 33083 ft | 438 kts | 344° |
| 2026-05-04 07:19 | -27.00143 | 17.69282 | 33082 ft | 438 kts | 344° |
| 2026-05-04 07:19 | -26.94096 | 17.68368 | 33062 ft | 438 kts | 344° |
| 2026-05-04 07:20 | -26.88038 | 17.67453 | 33084 ft | 440 kts | 344° |
| 2026-05-04 07:20 | -26.82001 | 17.66542 | 33081 ft | 440 kts | 344° |
| 2026-05-04 07:22 | -26.57657 | 17.62881 | 33059 ft | 443 kts | 344° |
| 2026-05-04 07:23 | -26.51536 | 17.61963 | 33067 ft | 443 kts | 344° |
| 2026-05-04 07:23 | -26.45454 | 17.61053 | 33063 ft | 443 kts | 344° |
| 2026-05-04 07:24 | -26.39336 | 17.60139 | 33066 ft | 443 kts | 344° |
| 2026-05-04 07:24 | -26.33217 | 17.59224 | 33068 ft | 445 kts | 344° |
| 2026-05-04 07:26 | -26.08590 | 17.55553 | 33064 ft | 446 kts | 344° |
| 2026-05-04 07:27 | -26.02424 | 17.54634 | 33061 ft | 448 kts | 344° |
| 2026-05-04 07:27 | -25.96228 | 17.53713 | 33059 ft | 449 kts | 344° |
| 2026-05-04 07:28 | -25.90052 | 17.52798 | 33058 ft | 449 kts | 344° |
| 2026-05-04 07:28 | -25.83888 | 17.51882 | 33057 ft | 449 kts | 344° |
| 2026-05-04 07:29 | -25.77696 | 17.50966 | 33032 ft | 449 kts | 344° |
| 2026-05-04 07:29 | -25.71479 | 17.50050 | 33056 ft | 451 kts | 344° |
| 2026-05-04 07:30 | -25.65250 | 17.49132 | 33056 ft | 451 kts | 344° |
| 2026-05-04 07:30 | -25.59025 | 17.48213 | 33056 ft | 451 kts | 344° |
| 2026-05-04 07:31 | -25.52790 | 17.47292 | 33053 ft | 451 kts | 344° |
| 2026-05-04 07:33 | -25.27736 | 17.43605 | 33060 ft | 455 kts | 345° |
| 2026-05-04 07:33 | -25.21454 | 17.42684 | 33058 ft | 455 kts | 345° |
| 2026-05-04 07:34 | -25.15159 | 17.41760 | 33054 ft | 457 kts | 344° |
| 2026-05-04 07:34 | -25.08841 | 17.40835 | 33059 ft | 458 kts | 345° |
| 2026-05-04 07:35 | -25.02550 | 17.39916 | 33062 ft | 458 kts | 345° |
| 2026-05-04 07:35 | -24.96192 | 17.38989 | 33064 ft | 457 kts | 344° |
| 2026-05-04 07:36 | -24.89938 | 17.38077 | 33058 ft | 457 kts | 344° |
| 2026-05-04 07:38 | -24.64625 | 17.34394 | 33073 ft | 459 kts | 344° |
| 2026-05-04 07:38 | -24.58283 | 17.33472 | 33069 ft | 460 kts | 344° |
| 2026-05-04 07:39 | -24.51898 | 17.32542 | 33075 ft | 463 kts | 344° |
| 2026-05-04 07:39 | -24.45515 | 17.31619 | 33075 ft | 462 kts | 344° |
| 2026-05-04 07:40 | -24.39177 | 17.30704 | 33073 ft | 462 kts | 344° |
| 2026-05-04 07:40 | -24.32795 | 17.29781 | 33073 ft | 462 kts | 344° |
| 2026-05-04 07:41 | -24.26412 | 17.28859 | 33072 ft | 462 kts | 344° |
| 2026-05-04 07:41 | -24.20025 | 17.27938 | 33071 ft | 462 kts | 344° |
| 2026-05-04 07:42 | -24.13694 | 17.27025 | 33072 ft | 462 kts | 344° |
| 2026-05-04 07:42 | -24.07326 | 17.26108 | 33075 ft | 462 kts | 344° |
| 2026-05-04 07:43 | -24.00938 | 17.25189 | 33059 ft | 462 kts | 344° |
| 2026-05-04 07:43 | -23.94533 | 17.24267 | 33079 ft | 464 kts | 344° |
| 2026-05-04 07:44 | -23.88128 | 17.23344 | 33071 ft | 464 kts | 344° |
| 2026-05-04 07:44 | -23.81720 | 17.22428 | 33074 ft | 464 kts | 344° |
| 2026-05-04 07:45 | -23.75343 | 17.21516 | 33077 ft | 464 kts | 344° |
| 2026-05-04 07:45 | -23.68935 | 17.20599 | 33080 ft | 465 kts | 344° |
| 2026-05-04 07:46 | -23.62498 | 17.19678 | 33077 ft | 466 kts | 344° |
| 2026-05-04 07:46 | -23.56053 | 17.18758 | 33077 ft | 466 kts | 344° |
| 2026-05-04 07:47 | -23.49651 | 17.17845 | 33086 ft | 466 kts | 344° |
| 2026-05-04 07:49 | -23.23822 | 17.14167 | 33086 ft | 469 kts | 345° |
| 2026-05-04 07:49 | -23.17353 | 17.13249 | 33118 ft | 469 kts | 345° |
| 2026-05-04 07:50 | -23.14140 | 17.12729 | 33364 ft | 463 kts | 341° |
| 2026-05-04 07:50 | -23.10998 | 17.12034 | 33634 ft | 457 kts | 340° |
| 2026-05-04 07:50 | -23.04827 | 17.10454 | 33820 ft | 458 kts | 339° |
| 2026-05-04 07:51 | -23.01717 | 17.09656 | 34023 ft | 458 kts | 339° |
| 2026-05-04 07:51 | -22.98608 | 17.08879 | 34088 ft | 459 kts | 340° |
| 2026-05-04 07:51 | -22.92320 | 17.07360 | 34149 ft | 465 kts | 340° |
| 2026-05-04 07:52 | -22.85991 | 17.05874 | 34205 ft | 464 kts | 340° |
| 2026-05-04 07:52 | -22.79676 | 17.04395 | 34262 ft | 464 kts | 340° |
| 2026-05-04 07:54 | -22.54376 | 16.98468 | 34332 ft | 466 kts | 340° |
| 2026-05-04 07:55 | -22.48036 | 16.96991 | 34126 ft | 467 kts | 340° |
| 2026-05-04 07:55 | -22.41659 | 16.95501 | 34130 ft | 469 kts | 340° |
| 2026-05-04 07:56 | -22.35286 | 16.94007 | 34128 ft | 468 kts | 340° |
| 2026-05-04 07:56 | -22.28962 | 16.92507 | 34124 ft | 468 kts | 340° |
| 2026-05-04 07:57 | -22.22593 | 16.91000 | 34123 ft | 469 kts | 340° |
| 2026-05-04 07:57 | -22.16197 | 16.89551 | 34113 ft | 470 kts | 341° |
| 2026-05-04 07:58 | -22.09780 | 16.88113 | 34113 ft | 471 kts | 341° |
| 2026-05-04 07:58 | -22.03367 | 16.86644 | 34110 ft | 471 kts | 341° |
| 2026-05-04 07:59 | -21.96959 | 16.85160 | 34110 ft | 471 kts | 341° |
| 2026-05-04 07:59 | -21.91631 | 16.83927 | 34111 ft | 471 kts | 341° |
| 2026-05-04 08:00 | -21.84179 | 16.82205 | 34113 ft | 472 kts | 341° |
| 2026-05-04 08:02 | -21.59524 | 16.76533 | 34110 ft | 473 kts | 341° |
| 2026-05-04 08:02 | -21.53064 | 16.75048 | 34119 ft | 475 kts | 341° |
| 2026-05-04 08:03 | -21.46636 | 16.73573 | 34119 ft | 475 kts | 341° |
| 2026-05-04 08:03 | -21.40156 | 16.72089 | 34118 ft | 475 kts | 341° |
| 2026-05-04 08:04 | -21.33688 | 16.70609 | 34119 ft | 475 kts | 341° |
| 2026-05-04 08:04 | -21.27218 | 16.69130 | 34116 ft | 474 kts | 341° |
| 2026-05-04 08:05 | -21.20767 | 16.67656 | 34120 ft | 474 kts | 341° |
| 2026-05-04 08:05 | -21.14354 | 16.66191 | 34120 ft | 474 kts | 341° |
| 2026-05-04 08:06 | -21.07912 | 16.64721 | 34122 ft | 474 kts | 341° |
| 2026-05-04 08:06 | -21.01457 | 16.63250 | 34117 ft | 474 kts | 341° |
| 2026-05-04 08:08 | -20.75577 | 16.57344 | 34118 ft | 476 kts | 341° |
| 2026-05-04 08:11 | -20.46397 | 16.50710 | 34122 ft | 477 kts | 341° |
| 2026-05-04 08:11 | -20.36679 | 16.48508 | 34113 ft | 477 kts | 341° |
| 2026-05-04 08:12 | -20.30168 | 16.47032 | 34118 ft | 478 kts | 342° |
| 2026-05-04 08:12 | -20.23682 | 16.45563 | 34115 ft | 479 kts | 342° |
| 2026-05-04 08:13 | -20.17179 | 16.44093 | 34110 ft | 479 kts | 342° |
| 2026-05-04 08:13 | -20.10645 | 16.42618 | 34118 ft | 479 kts | 342° |
| 2026-05-04 08:14 | -20.04143 | 16.41151 | 34118 ft | 479 kts | 342° |
| 2026-05-04 08:16 | -19.77950 | 16.35251 | 34107 ft | 481 kts | 342° |
| 2026-05-04 08:16 | -19.71442 | 16.33789 | 34106 ft | 481 kts | 342° |
| 2026-05-04 08:17 | -19.64871 | 16.32311 | 34106 ft | 483 kts | 342° |
| 2026-05-04 08:17 | -19.58299 | 16.30837 | 34109 ft | 484 kts | 342° |
| 2026-05-04 08:19 | -19.31947 | 16.24936 | 34104 ft | 485 kts | 343° |
| 2026-05-04 08:20 | -19.25333 | 16.23459 | 34104 ft | 486 kts | 343° |
| 2026-05-04 08:20 | -19.18748 | 16.21989 | 34102 ft | 486 kts | 343° |
| 2026-05-04 08:21 | -19.12133 | 16.20514 | 34105 ft | 486 kts | 343° |
| 2026-05-04 08:21 | -19.05507 | 16.19037 | 34092 ft | 486 kts | 343° |
| 2026-05-04 08:22 | -18.98887 | 16.17561 | 34099 ft | 489 kts | 343° |
| 2026-05-04 08:24 | -18.72224 | 16.11636 | 34092 ft | 490 kts | 343° |
| 2026-05-04 08:24 | -18.65576 | 16.10161 | 34096 ft | 491 kts | 343° |
| 2026-05-04 08:25 | -18.58902 | 16.08682 | 34091 ft | 491 kts | 343° |
| 2026-05-04 08:25 | -18.52197 | 16.07197 | 34093 ft | 491 kts | 343° |
| 2026-05-04 08:27 | -18.25456 | 16.01272 | 34092 ft | 492 kts | 343° |
| 2026-05-04 08:28 | -18.18749 | 15.99789 | 34096 ft | 492 kts | 343° |
| 2026-05-04 08:28 | -18.12044 | 15.98308 | 34100 ft | 492 kts | 343° |
| 2026-05-04 08:29 | -18.05400 | 15.96841 | 34099 ft | 491 kts | 343° |
| 2026-05-04 08:31 | -17.78614 | 15.90940 | 34096 ft | 492 kts | 343° |
| 2026-05-04 08:33 | -17.51759 | 15.85042 | 34101 ft | 494 kts | 343° |
| 2026-05-04 08:35 | -17.25169 | 15.78005 | 34121 ft | 491 kts | 338° |
| 2026-05-04 08:35 | -17.18682 | 15.75878 | 34160 ft | 492 kts | 339° |